createdAt,value
2018-10-19T00:00:03.533Z,99889.61
2018-10-19T00:02:32.080Z,99890.53
2018-10-19T00:05:00.694Z,99891.45
2018-10-19T00:07:29.200Z,99903.13
2018-10-19T00:09:58.101Z,99900.68
2018-10-19T00:12:26.648Z,99897.61
2018-10-19T00:14:55.234Z,99895.03
2018-10-19T00:17:23.849Z,99889.38
2018-10-19T00:19:52.452Z,99892.19
2018-10-19T00:22:20.991Z,99887.70
2018-10-19T00:24:49.561Z,99882.09
2018-10-19T00:27:18.126Z,99881.16
2018-10-19T00:29:46.704Z,99881.00
2018-10-19T00:32:15.248Z,99880.86
2018-10-19T00:34:43.828Z,99878.34
2018-10-19T00:37:12.363Z,99878.36
2018-10-19T00:39:40.883Z,99884.19
2018-10-19T00:42:09.457Z,99880.42
2018-10-19T00:44:37.992Z,99880.83
2018-10-19T00:47:06.628Z,99877.92
2018-10-19T00:49:35.172Z,99881.50
2018-10-19T00:52:03.756Z,99881.36
2018-10-19T00:54:32.300Z,99876.94
2018-10-19T00:57:00.921Z,99877.30
2018-10-19T00:59:29.438Z,99874.75
2018-10-19T01:01:58.029Z,99888.27
2018-10-19T01:04:26.572Z,99883.27
2018-10-19T01:06:55.137Z,99884.58
2018-10-19T01:09:23.681Z,99879.52
2018-10-19T01:11:52.273Z,99878.28
2018-10-19T01:14:20.817Z,99872.81
2018-10-19T01:16:49.385Z,99868.41
2018-10-19T01:19:17.952Z,99864.72
2018-10-19T01:21:46.528Z,99866.48
2018-10-19T01:24:15.091Z,99864.89
2018-10-19T01:26:43.676Z,99864.00
2018-10-19T01:29:12.225Z,99867.53
2018-10-19T01:31:41.604Z,99871.37
2018-10-19T01:34:10.180Z,99861.38
2018-10-19T01:36:43.373Z,99858.11
2018-10-19T01:39:12.583Z,99857.49
2018-10-19T01:41:41.708Z,99859.64
2018-10-19T01:44:10.826Z,99861.59
2018-10-19T01:46:43.516Z,99859.48
2018-10-19T01:49:12.034Z,99851.53
2018-10-19T01:51:40.594Z,99851.73
2018-10-19T01:54:09.108Z,99853.17
2018-10-19T01:56:37.665Z,99855.86
2018-10-19T01:59:06.552Z,99849.84
2018-10-19T02:01:35.100Z,99850.45
2018-10-19T02:04:03.642Z,99847.50
2018-10-19T02:06:32.414Z,99851.19
2018-10-19T02:09:00.968Z,99854.95
2018-10-19T02:11:29.633Z,99863.37
2018-10-19T02:13:58.157Z,99857.88
2018-10-19T02:16:26.736Z,99855.61
2018-10-19T02:18:55.293Z,99861.42
2018-10-19T02:21:23.833Z,99867.69
2018-10-19T02:23:52.365Z,99863.30
2018-10-19T02:26:20.933Z,99860.80
2018-10-19T02:28:49.455Z,99865.75
2018-10-19T02:31:18.014Z,99867.23
2018-10-19T02:33:46.528Z,99868.51
2018-10-19T02:36:15.044Z,99865.34
2018-10-19T02:38:43.593Z,99867.98
2018-10-19T02:41:12.198Z,99865.05
2018-10-19T02:43:40.692Z,99861.56
2018-10-19T02:46:09.213Z,99860.08
2018-10-19T02:48:37.765Z,99866.36
2018-10-19T02:51:06.333Z,99866.90
2018-10-19T02:53:35.316Z,99865.45
2018-10-19T02:56:03.839Z,99865.00
2018-10-19T02:58:32.746Z,99870.91
2018-10-19T03:01:01.263Z,99866.89
2018-10-19T03:03:29.813Z,99863.95
2018-10-19T03:05:58.329Z,99867.95
2018-10-19T03:08:26.878Z,99859.23
2018-10-19T03:10:55.409Z,99867.62
2018-10-19T03:13:24.322Z,99862.09
2018-10-19T03:15:52.839Z,99863.81
2018-10-19T03:18:21.379Z,99858.20
2018-10-19T03:20:50.040Z,99857.59
2018-10-19T03:23:18.633Z,99858.08
2018-10-19T03:25:47.183Z,99856.17
2018-10-19T03:28:15.789Z,99851.63
2018-10-19T03:30:44.417Z,99854.51
2018-10-19T03:33:13.073Z,99847.98
2018-10-19T03:35:41.628Z,99844.92
2018-10-19T03:38:10.212Z,99848.64
2018-10-19T03:40:39.007Z,99857.64
2018-10-19T03:43:07.600Z,99856.79
2018-10-19T03:45:36.449Z,99850.31
2018-10-19T03:48:05.305Z,99849.45
2018-10-19T03:50:33.881Z,99848.48
2018-10-19T03:53:02.913Z,99847.27
2018-10-19T03:55:31.453Z,99846.17
2018-10-19T03:58:00.057Z,99851.09
2018-10-19T04:00:28.616Z,99848.61
2018-10-19T04:02:57.242Z,99857.83
2018-10-19T04:05:26.132Z,99858.25
2018-10-19T04:07:54.749Z,99852.72
2018-10-19T04:10:23.397Z,99850.35
2018-10-19T04:12:51.985Z,99849.20
2018-10-19T04:15:20.557Z,99850.88
2018-10-19T04:17:50.204Z,99850.63
2018-10-19T04:20:19.234Z,99852.59
2018-10-19T04:22:47.860Z,99855.98
2018-10-19T04:25:17.131Z,99850.09
2018-10-19T04:27:46.181Z,99851.03
2018-10-19T04:30:14.713Z,99851.28
2018-10-19T04:32:43.273Z,99849.45
2018-10-19T04:35:12.424Z,99855.61
2018-10-19T04:37:40.997Z,99851.03
2018-10-19T04:40:18.705Z,99851.16
2018-10-19T04:42:47.621Z,99863.42
2018-10-19T04:45:16.842Z,99859.25
2018-10-19T04:47:45.673Z,99869.20
2018-10-19T04:50:14.273Z,99860.73
2018-10-19T04:52:42.860Z,99863.00
2018-10-19T04:55:24.906Z,99861.33
2018-10-19T04:57:53.517Z,99859.76
2018-10-19T05:00:22.784Z,99860.44
2018-10-19T05:02:51.938Z,99867.94
2018-10-19T05:05:21.027Z,99863.55
2018-10-19T05:07:49.437Z,99868.50
2018-10-19T05:10:18.037Z,99869.75
2018-10-19T05:12:46.652Z,99874.81
2018-10-19T05:15:15.250Z,99876.34
2018-10-19T05:17:46.259Z,99869.98
2018-10-19T05:20:15.168Z,99874.89
2018-10-19T05:22:43.642Z,99879.03
2018-10-19T05:25:13.383Z,99883.53
2018-10-19T05:27:45.340Z,99888.02
2018-10-19T05:30:14.240Z,99890.26
2018-10-19T05:32:43.323Z,99890.91
2018-10-19T05:35:11.955Z,99893.40
2018-10-19T05:37:41.312Z,99892.41
2018-10-19T05:40:11.048Z,99899.28
2018-10-19T05:42:40.018Z,99882.92
2018-10-19T05:45:09.957Z,99895.55
2018-10-19T05:47:38.488Z,99887.64
2018-10-19T05:50:08.397Z,99888.41
2018-10-19T05:52:37.220Z,99892.08
2018-10-19T05:55:05.853Z,99894.70
2018-10-19T05:57:34.577Z,99889.27
2018-10-19T06:00:03.428Z,99892.14
2018-10-19T06:02:32.627Z,99894.87
2018-10-19T06:05:01.229Z,99897.77
2018-10-19T06:07:29.758Z,99899.53
2018-10-19T06:09:58.429Z,99903.45
2018-10-19T06:12:26.944Z,99899.31
2018-10-19T06:14:55.560Z,99904.34
2018-10-19T06:17:24.148Z,99906.85
2018-10-19T06:19:52.768Z,99909.99
2018-10-19T06:22:21.328Z,99910.45
2018-10-19T06:24:49.924Z,99911.14
2018-10-19T06:27:18.472Z,99911.13
2018-10-19T06:29:47.114Z,99910.66
2018-10-19T06:32:15.694Z,99913.28
2018-10-19T06:34:44.322Z,99916.69
2018-10-19T06:37:12.885Z,99917.58
2018-10-19T06:39:41.436Z,99922.28
2018-10-19T06:42:10.032Z,99925.20
2018-10-19T06:44:38.597Z,99930.95
2018-10-19T06:47:07.311Z,99927.01
2018-10-19T06:49:35.955Z,99932.27
2018-10-19T06:52:04.740Z,99942.20
2018-10-19T06:54:33.401Z,99936.19
2018-10-19T06:57:02.158Z,99941.81
2018-10-19T06:59:31.849Z,99942.91
2018-10-19T07:02:00.508Z,99942.14
2018-10-19T07:04:29.209Z,99945.86
2018-10-19T07:06:57.877Z,99956.99
2018-10-19T07:09:26.672Z,99956.03
2018-10-19T07:11:55.398Z,99957.22
2018-10-19T07:14:24.141Z,99963.83
2018-10-19T07:16:52.919Z,99958.32
2018-10-19T07:19:21.686Z,99965.36
2018-10-19T07:21:52.881Z,99965.30
2018-10-19T07:24:21.680Z,99970.33
2018-10-19T07:26:50.413Z,99967.12
2018-10-19T07:29:19.289Z,99976.86
2018-10-19T07:31:47.965Z,99973.24
2018-10-19T07:34:16.666Z,99981.22
2018-10-19T07:36:45.393Z,99982.14
2018-10-19T07:39:14.117Z,99985.00
2018-10-19T07:41:42.882Z,99987.13
2018-10-19T07:44:11.794Z,99985.37
2018-10-19T07:46:40.430Z,99997.86
2018-10-19T07:49:09.125Z,99996.52
2018-10-19T07:51:37.977Z,99991.27
2018-10-19T07:54:06.700Z,99998.88
2018-10-19T07:56:36.521Z,100001.95
2018-10-19T07:59:06.424Z,99999.77
2018-10-19T08:01:35.057Z,100001.67
2018-10-19T08:04:03.864Z,100013.11
2018-10-19T08:06:32.668Z,100006.73
2018-10-19T08:09:02.009Z,100003.06
2018-10-19T08:11:30.736Z,100001.97
2018-10-19T08:13:59.511Z,100002.04
2018-10-19T08:16:28.134Z,100007.36
2018-10-19T08:18:56.815Z,100003.84
2018-10-19T08:21:25.536Z,100003.91
2018-10-19T08:23:54.284Z,100006.87
2018-10-19T08:26:23.013Z,100008.91
2018-10-19T08:28:51.684Z,100006.59
2018-10-19T08:31:20.360Z,100012.27
2018-10-19T08:33:49.060Z,100017.64
2018-10-19T08:36:18.780Z,100014.27
2018-10-19T08:38:47.452Z,100017.20
2018-10-19T08:41:16.184Z,100016.19
2018-10-19T08:43:44.805Z,100016.40
2018-10-19T08:46:18.825Z,100016.48
2018-10-19T08:48:47.481Z,100016.60
2018-10-19T08:51:16.352Z,100011.14
2018-10-19T08:53:45.359Z,100017.36
2018-10-19T08:56:14.128Z,100016.31
2018-10-19T08:58:42.846Z,100017.56
2018-10-19T09:01:11.463Z,100015.10
2018-10-19T09:03:40.208Z,100016.50
2018-10-19T09:06:09.060Z,100011.53
2018-10-19T09:08:37.766Z,100019.62
2018-10-19T09:11:06.588Z,100020.95
2018-10-19T09:13:35.329Z,100023.59
2018-10-19T09:16:03.984Z,100025.56
2018-10-19T09:18:32.678Z,100027.91
2018-10-19T09:21:01.556Z,100026.19
2018-10-19T09:23:30.300Z,100020.21
2018-10-19T09:25:59.036Z,100025.59
2018-10-19T09:28:27.708Z,100024.81
2018-10-19T09:30:56.454Z,100022.43
2018-10-19T09:33:25.109Z,100017.05
2018-10-19T09:35:53.783Z,100016.86
2018-10-19T09:38:22.509Z,100014.77
2018-10-19T09:40:51.300Z,100016.37
2018-10-19T09:43:19.941Z,100016.28
2018-10-19T09:45:48.564Z,100018.09
2018-10-19T09:48:17.377Z,100017.02
2018-10-19T09:50:46.075Z,100010.66
2018-10-19T09:53:14.841Z,100021.28
2018-10-19T09:55:43.529Z,100015.34
2018-10-19T09:58:12.304Z,100015.40
2018-10-19T10:00:46.173Z,100007.67
2018-10-19T10:03:14.921Z,100015.02
2018-10-19T10:05:43.934Z,100015.94
2018-10-19T10:08:12.574Z,100015.05
2018-10-19T10:10:41.142Z,100014.78
2018-10-19T10:13:09.802Z,100014.67
2018-10-19T10:15:38.397Z,100019.87
2018-10-19T10:18:07.019Z,100015.00
2018-10-19T10:20:35.773Z,100016.84
2018-10-19T10:23:04.644Z,100009.09
2018-10-19T10:25:33.230Z,100004.81
2018-10-19T10:28:01.862Z,100003.23
2018-10-19T10:30:30.429Z,100006.91
2018-10-19T10:32:59.040Z,99998.46
2018-10-19T10:35:28.081Z,99993.66
2018-10-19T10:37:56.684Z,99996.23
2018-10-19T10:40:25.271Z,99992.89
2018-10-19T10:42:53.876Z,99996.27
2018-10-19T10:45:22.665Z,99998.70
2018-10-19T10:47:51.244Z,99988.98
2018-10-19T10:50:19.856Z,99990.53
2018-10-19T10:52:48.693Z,99990.32
2018-10-19T10:55:18.735Z,99986.05
2018-10-19T10:57:48.129Z,99993.20
2018-10-19T11:00:16.910Z,99990.02
2018-10-19T11:02:47.070Z,99990.53
2018-10-19T11:05:15.728Z,99991.21
2018-10-19T11:07:46.003Z,99980.84
2018-10-19T11:10:15.001Z,99976.38
2018-10-19T11:12:44.401Z,99977.38
2018-10-19T11:15:13.344Z,99967.73
2018-10-19T11:17:41.940Z,99967.67
2018-10-19T11:20:11.273Z,99966.58
2018-10-19T11:22:39.904Z,99956.98
2018-10-19T11:25:08.894Z,99951.58
2018-10-19T11:27:37.696Z,99947.16
2018-10-19T11:30:07.481Z,99953.95
2018-10-19T11:32:36.125Z,99951.56
2018-10-19T11:35:05.062Z,99948.07
2018-10-19T11:37:34.595Z,99936.16
2018-10-19T11:40:30.357Z,99926.91
2018-10-19T11:42:58.983Z,99926.56
2018-10-19T11:45:28.944Z,99929.83
2018-10-19T11:47:57.513Z,99931.16
2018-10-19T11:50:26.149Z,99931.15
2018-10-19T11:52:55.185Z,99930.23
2018-10-19T11:55:24.085Z,99930.45
2018-10-19T11:57:53.084Z,99929.61
2018-10-19T12:00:23.246Z,99930.11
2018-10-19T12:02:52.373Z,99925.52
2018-10-19T12:05:24.113Z,99924.16
2018-10-19T12:07:52.888Z,99909.22
2018-10-19T12:10:21.567Z,99910.55
2018-10-19T12:12:51.489Z,99906.41
2018-10-19T12:15:22.234Z,99906.61
2018-10-19T12:17:51.912Z,99907.39
2018-10-19T12:20:20.765Z,99907.23
2018-10-19T12:22:51.545Z,99904.02
2018-10-19T12:25:20.120Z,99902.53
2018-10-19T12:27:49.671Z,99904.64
2018-10-19T12:30:18.368Z,99896.02
2018-10-19T12:32:46.968Z,99901.77
2018-10-19T12:35:17.996Z,99903.77
2018-10-19T12:37:47.336Z,99906.92
2018-10-19T12:40:17.067Z,99899.98
2018-10-19T12:42:45.624Z,99903.06
2018-10-19T12:46:30.232Z,99897.94
2018-10-19T12:48:58.782Z,99891.63
2018-10-19T12:51:27.368Z,99890.87
2018-10-19T12:53:56.138Z,99890.62
2018-10-19T12:56:24.688Z,99890.44
2018-10-19T12:58:54.105Z,99896.50
2018-10-19T13:01:23.611Z,99889.68
2018-10-19T13:03:52.556Z,99894.16
2018-10-19T13:06:21.146Z,99890.98
2018-10-19T13:08:54.148Z,99890.70
2018-10-19T13:11:29.628Z,99881.26
2018-10-19T13:14:03.563Z,99874.80
2018-10-19T13:16:46.763Z,99883.56
2018-10-19T13:22:05.317Z,99875.33
2018-10-19T13:24:42.135Z,99882.08
2018-10-19T13:27:19.329Z,99875.22
2018-10-19T13:29:57.638Z,99873.98
2018-10-19T13:32:37.343Z,99872.66
2018-10-19T13:35:12.705Z,99872.96
2018-10-19T13:37:48.392Z,99870.03
2018-10-19T13:40:27.751Z,99876.67
2018-10-19T13:43:09.377Z,99873.59
2018-10-19T13:45:44.425Z,99869.00
2018-10-19T13:48:20.164Z,99870.94
2018-10-19T13:50:56.434Z,99865.97
2018-10-19T13:53:31.560Z,99872.67
2018-10-19T13:56:10.614Z,99870.81
2018-10-19T13:58:46.772Z,99860.81
2018-10-19T14:01:26.990Z,99864.72
2018-10-19T14:04:04.228Z,99861.14
2018-10-19T14:06:48.170Z,99862.28
2018-10-19T14:09:29.196Z,99858.23
2018-10-19T14:12:10.731Z,99858.69
2018-10-19T14:14:46.055Z,99852.30
2018-10-19T14:17:21.577Z,99857.98
2018-10-19T14:20:01.013Z,99852.50
2018-10-19T14:22:39.323Z,99861.69
2018-10-19T14:25:17.360Z,99864.37
2018-10-19T14:27:57.941Z,99860.77
2018-10-19T14:30:30.365Z,99863.46
2018-10-19T14:33:01.755Z,99856.48
2018-10-19T14:35:30.535Z,99855.66
2018-10-19T14:38:02.183Z,99849.53
2018-10-19T14:40:33.551Z,99845.56
2018-10-19T14:43:09.380Z,99850.67
2018-10-19T14:45:39.053Z,99846.42
2018-10-19T14:48:10.694Z,99841.76
2018-10-19T14:50:44.407Z,99842.42
2018-10-19T14:53:17.374Z,99847.04
2018-10-19T14:55:47.756Z,99846.88
2018-10-19T15:00:53.595Z,99853.11
2018-10-19T15:03:26.615Z,99847.46
2018-10-19T15:05:56.405Z,99848.22
2018-10-19T15:08:26.953Z,99848.25
2018-10-19T15:11:04.306Z,99854.09
2018-10-19T15:13:42.769Z,99859.16
2018-10-19T15:16:18.473Z,99856.03
2018-10-19T15:18:54.131Z,99850.84
2018-10-19T15:21:28.805Z,99855.43
2018-10-19T15:24:04.608Z,99848.61
2018-10-19T15:26:39.363Z,99846.88
2018-10-19T15:29:16.657Z,99849.34
2018-10-19T15:31:50.595Z,99845.08
2018-10-19T15:34:28.437Z,99847.34
2018-10-19T15:37:02.635Z,99850.30
2018-10-19T15:39:39.602Z,99850.70
2018-10-19T15:42:15.036Z,99854.70
2018-10-19T15:44:48.916Z,99852.03
2018-10-19T15:47:28.032Z,99847.39
2018-10-19T15:50:05.220Z,99847.99
2018-10-19T15:52:45.273Z,99855.09
2018-10-19T15:55:20.997Z,99854.20
2018-10-19T15:57:55.479Z,99865.17
2018-10-19T16:00:38.760Z,99870.06
2018-10-19T16:03:14.219Z,99871.55
2018-10-19T16:05:52.900Z,99871.56
2018-10-19T16:08:34.125Z,99871.58
2018-10-19T16:11:09.154Z,99872.75
2018-10-19T16:13:43.077Z,99870.95
2018-10-19T16:16:11.719Z,99869.87
2018-10-19T16:18:40.289Z,99871.81
2018-10-19T16:21:08.912Z,99871.69
2018-10-19T16:23:37.577Z,99874.88
2018-10-19T16:26:06.234Z,99876.99
2018-10-19T16:28:34.927Z,99878.93
2018-10-19T16:31:03.421Z,99881.38
2018-10-19T16:33:32.026Z,99882.56
2018-10-19T16:36:00.870Z,99886.54
2018-10-19T16:38:29.439Z,99883.38
2018-10-19T16:40:57.992Z,99887.09
2018-10-19T16:43:26.601Z,99891.03
2018-10-19T16:45:55.208Z,99892.35
2018-10-19T16:48:23.821Z,99894.46
2018-10-19T16:50:52.398Z,99893.72
2018-10-19T16:53:21.001Z,99901.19
2018-10-19T16:55:51.372Z,99899.70
2018-10-19T16:58:22.949Z,99905.28
2018-10-19T17:00:52.769Z,99906.56
2018-10-19T17:03:22.608Z,99908.30
2018-10-19T17:05:51.236Z,99919.72
2018-10-19T17:08:19.842Z,99925.63
2018-10-19T17:10:48.417Z,99933.14
2018-10-19T17:13:17.830Z,99933.73
2018-10-19T17:15:46.396Z,99943.50
2018-10-19T17:18:15.125Z,99945.72
2018-10-19T17:20:43.730Z,99947.95
2018-10-19T17:23:12.300Z,99949.92
2018-10-19T17:25:40.905Z,99956.89
2018-10-19T17:28:09.489Z,99959.66
2018-10-19T17:30:39.742Z,99962.50
2018-10-19T17:33:08.338Z,99964.59
2018-10-19T17:35:37.079Z,99971.32
2018-10-19T17:38:06.165Z,99975.98
2018-10-19T17:40:34.745Z,99978.84
2018-10-19T17:43:03.347Z,99978.62
2018-10-19T17:45:31.929Z,99984.67
2018-10-19T17:48:00.523Z,99991.20
2018-10-19T17:50:29.538Z,99987.86
2018-10-19T17:52:58.163Z,99993.99
2018-10-19T17:55:26.713Z,99992.77
2018-10-19T17:57:55.278Z,99984.56
2018-10-19T18:00:23.872Z,99988.52
2018-10-19T18:02:52.467Z,99994.80
2018-10-19T18:05:21.096Z,99990.50
2018-10-19T18:07:50.680Z,99997.73
2018-10-19T18:10:19.473Z,100003.19
2018-10-19T18:12:53.106Z,100005.86
2018-10-19T18:15:26.870Z,100005.48
2018-10-19T18:17:58.050Z,100011.99
2018-10-19T18:20:26.737Z,100008.94
2018-10-19T18:22:56.381Z,100014.94
2018-10-19T18:25:25.011Z,100016.91
2018-10-19T18:27:53.583Z,100016.32
2018-10-19T18:30:22.181Z,100024.24
2018-10-19T18:32:50.743Z,100029.75
2018-10-19T18:35:19.456Z,100037.01
2018-10-19T18:37:47.985Z,100041.07
2018-10-19T18:40:16.574Z,100039.00
2018-10-19T18:42:45.137Z,100045.72
2018-10-19T18:45:13.750Z,100047.01
2018-10-19T18:47:43.922Z,100050.47
2018-10-19T18:50:12.558Z,100054.90
2018-10-19T18:52:41.177Z,100059.04
2018-10-19T18:55:09.845Z,100074.29
2018-10-19T18:57:38.416Z,100067.91
2018-10-19T19:00:09.133Z,100073.50
2018-10-19T19:02:37.985Z,100079.05
2018-10-19T19:05:10.155Z,100081.42
2018-10-19T19:07:39.055Z,100086.90
2018-10-19T19:10:13.029Z,100086.41
2018-10-19T19:13:10.651Z,100093.70
2018-10-19T19:18:50.363Z,100100.16
2018-10-19T19:21:36.603Z,100103.23
2018-10-19T19:25:14.216Z,100109.98
2018-10-19T19:27:53.013Z,100108.31
2018-10-19T19:30:30.382Z,100112.88
2018-10-19T19:33:11.242Z,100119.66
2018-10-19T19:35:48.300Z,100120.42
2018-10-19T19:38:21.992Z,100123.19
2018-10-19T19:41:00.331Z,100125.26
2018-10-19T19:43:33.741Z,100120.44
2018-10-19T19:46:07.731Z,100124.11
2018-10-19T19:48:46.939Z,100125.50
2018-10-19T19:51:23.486Z,100130.22
2018-10-19T19:53:55.903Z,100126.04
2018-10-19T19:56:24.597Z,100131.14
2018-10-19T19:58:53.160Z,100126.06
2018-10-19T20:01:21.713Z,100122.80
2018-10-19T20:03:50.259Z,100120.42
2018-10-19T20:06:19.467Z,100117.98
2018-10-19T20:08:48.817Z,100124.53
2018-10-19T20:11:17.389Z,100126.88
2018-10-19T20:13:45.929Z,100130.44
2018-10-19T20:16:14.710Z,100131.11
2018-10-19T20:18:44.795Z,100127.16
2018-10-19T20:21:13.497Z,100127.16
2018-10-19T20:23:42.077Z,100126.16
2018-10-19T20:26:10.682Z,100130.02
2018-10-19T20:28:39.601Z,100127.20
2018-10-19T20:31:08.194Z,100128.59
2018-10-19T20:33:38.552Z,100133.72
2018-10-19T20:36:07.318Z,100138.84
2018-10-19T20:38:35.933Z,100131.48
2018-10-19T20:41:04.741Z,100133.11
2018-10-19T20:43:33.264Z,100135.53
2018-10-19T20:46:08.478Z,100137.52
2018-10-19T20:48:41.342Z,100141.33
2018-10-19T20:51:13.300Z,100145.20
2018-10-19T20:53:49.306Z,100144.78
2018-10-19T20:56:23.102Z,100153.69
2018-10-19T20:58:55.188Z,100158.25
2018-10-19T21:01:27.813Z,100161.23
2018-10-19T21:03:57.961Z,100158.05
2018-10-19T21:06:28.552Z,100158.47
2018-10-19T21:08:58.524Z,100154.08
2018-10-19T21:11:29.881Z,100154.59
2018-10-19T21:14:01.280Z,100153.23
2018-10-19T21:16:37.319Z,100151.14
2018-10-19T21:19:10.460Z,100159.53
2018-10-19T21:21:41.668Z,100154.47
2018-10-19T21:24:15.591Z,100154.42
2018-10-19T21:26:44.196Z,100147.89
2018-10-19T21:29:17.640Z,100152.45
2018-10-19T21:31:48.682Z,100155.88
2018-10-19T21:34:40.361Z,100153.70
2018-10-19T21:37:16.177Z,100143.47
2018-10-19T21:39:53.498Z,100142.95
2018-10-19T21:42:26.731Z,100149.06
2018-10-19T21:45:09.384Z,100152.28
2018-10-19T21:47:41.853Z,100146.52
2018-10-19T21:50:11.625Z,100140.95
2018-10-19T21:52:41.333Z,100154.73
2018-10-19T21:55:13.389Z,100151.41
2018-10-19T21:57:49.048Z,100151.86
2018-10-19T22:00:19.265Z,100152.52
2018-10-19T22:02:48.964Z,100148.02
2018-10-19T22:05:18.576Z,100147.25
2018-10-19T22:07:48.111Z,100161.94
2018-10-19T22:10:18.899Z,100161.19
2018-10-19T22:12:48.468Z,100157.31
2018-10-19T22:15:17.744Z,100162.17
2018-10-19T22:17:47.250Z,100155.72
2018-10-19T22:20:16.792Z,100160.31
2018-10-19T22:22:46.856Z,100165.29
2018-10-19T22:25:17.060Z,100162.22
2018-10-19T22:27:46.652Z,100164.90
2018-10-19T22:30:16.056Z,100160.78
2018-10-19T22:32:45.816Z,100160.66
2018-10-19T22:35:14.437Z,100162.81
2018-10-19T22:37:43.017Z,100165.36
2018-10-19T22:40:11.595Z,100162.73
2018-10-19T22:42:40.188Z,100161.56
2018-10-19T22:45:08.778Z,100162.80
2018-10-19T22:47:37.388Z,100167.98
2018-10-19T22:50:05.996Z,100175.67
2018-10-19T22:52:34.977Z,100168.05
2018-10-19T22:55:03.943Z,100168.94
2018-10-19T22:57:32.541Z,100171.45
2018-10-19T23:00:01.121Z,100172.85
2018-10-19T23:02:29.743Z,100172.69
2018-10-19T23:04:58.394Z,100178.70
2018-10-19T23:07:27.281Z,100179.41
2018-10-19T23:09:55.902Z,100183.52
2018-10-19T23:12:24.469Z,100181.88
2018-10-19T23:14:53.297Z,100182.55
2018-10-19T23:17:21.855Z,100190.98
2018-10-19T23:19:50.476Z,100190.52
2018-10-19T23:22:19.054Z,100186.84
2018-10-19T23:24:47.637Z,100190.40
2018-10-19T23:27:16.188Z,100190.31
2018-10-19T23:29:44.785Z,100188.94
2018-10-19T23:32:13.344Z,100204.83
2018-10-19T23:34:48.608Z,100196.77
2018-10-19T23:37:17.169Z,100202.00
2018-10-19T23:39:45.768Z,100213.97
2018-10-19T23:42:14.621Z,100213.36
2018-10-19T23:44:43.212Z,100216.09
2018-10-19T23:47:11.864Z,100219.63
2018-10-19T23:49:40.407Z,100220.30
2018-10-19T23:52:08.957Z,100221.90
2018-10-19T23:54:37.557Z,100222.28
2018-10-19T23:57:06.185Z,100219.39
2018-10-19T23:59:34.786Z,100218.65
